createdAt,value
2019-04-14T00:01:17.253Z,28.77
2019-04-14T00:04:07.261Z,26.93
2019-04-14T00:06:37.902Z,27.50
2019-04-14T00:09:09.674Z,26.70
2019-04-14T00:14:14.173Z,26.37
2019-04-14T00:16:44.498Z,25.00
2019-04-14T00:19:13.145Z,30.15
2019-04-14T00:21:41.770Z,28.52
2019-04-14T00:24:11.574Z,28.27
2019-04-14T00:26:40.284Z,28.23
2019-04-14T00:29:09.024Z,30.17
2019-04-14T00:31:37.623Z,30.45
2019-04-14T00:34:18.103Z,32.55
2019-04-14T00:36:48.428Z,31.65
2019-04-14T00:39:18.699Z,31.62
2019-04-14T00:41:55.539Z,31.45
2019-04-14T00:44:39.061Z,35.52
2019-04-14T00:47:19.936Z,32.33
2019-04-14T00:49:48.800Z,29.95
2019-04-14T00:52:18.865Z,35.10
2019-04-14T00:54:47.813Z,31.87
2019-04-14T00:57:16.656Z,30.82
2019-04-14T00:59:46.290Z,35.05
2019-04-14T01:02:15.028Z,35.08
2019-04-14T01:04:46.622Z,32.38
2019-04-14T01:07:15.134Z,36.65
2019-04-14T01:09:44.234Z,35.15
2019-04-14T01:12:12.994Z,33.13
2019-04-14T01:14:41.636Z,35.00
2019-04-14T01:17:11.268Z,34.10
2019-04-14T01:19:41.656Z,35.80
2019-04-14T01:22:10.371Z,38.25
2019-04-14T01:24:38.900Z,37.60
2019-04-14T01:27:08.133Z,34.65
2019-04-14T01:29:36.791Z,37.03
2019-04-14T01:32:06.518Z,38.92
2019-04-14T01:34:35.520Z,38.63
2019-04-14T01:37:05.152Z,35.15
2019-04-14T01:39:34.920Z,35.70
2019-04-14T01:42:04.841Z,38.08
2019-04-14T01:44:33.757Z,41.23
2019-04-14T01:47:03.094Z,37.50
2019-04-14T01:49:31.874Z,36.25
2019-04-14T01:52:18.842Z,35.70
2019-04-14T01:54:56.079Z,36.23
2019-04-14T01:57:35.243Z,38.92
2019-04-14T02:00:18.451Z,40.48
2019-04-14T02:02:47.123Z,37.85
2019-04-14T02:05:16.727Z,38.10
2019-04-14T02:07:45.577Z,38.38
2019-04-14T02:10:15.128Z,40.15
2019-04-14T02:12:45.171Z,37.55
2019-04-14T02:15:17.727Z,35.50
2019-04-14T02:17:46.116Z,39.38
2019-04-14T02:20:14.949Z,39.63
2019-04-14T02:22:44.092Z,36.77
2019-04-14T02:25:14.174Z,39.40
2019-04-14T02:27:43.004Z,39.30
2019-04-14T02:30:15.950Z,38.28
2019-04-14T02:38:13.784Z,43.52
2019-04-14T02:40:49.216Z,38.30
2019-04-14T02:43:19.715Z,40.95
2019-04-14T02:45:44.634Z,40.55
2019-04-14T02:50:43.684Z,47.78
2019-04-14T02:53:15.179Z,41.45
2019-04-14T02:55:42.532Z,43.73
2019-04-14T03:03:16.060Z,46.42
2019-04-14T03:05:44.355Z,45.80
2019-04-14T03:08:22.239Z,48.52
2019-04-14T03:13:27.075Z,44.45
2019-04-14T03:15:48.260Z,44.90
2019-04-14T03:18:40.494Z,45.70
2019-04-14T03:21:30.606Z,43.52
2019-04-14T03:23:57.973Z,43.68
2019-04-14T03:26:30.618Z,45.43
2019-04-14T03:29:21.187Z,45.65
2019-04-14T03:39:26.946Z,44.73
2019-04-14T03:41:56.853Z,45.45
2019-04-14T03:47:08.813Z,48.70
2019-04-14T03:49:26.931Z,45.70
2019-04-14T03:54:15.917Z,46.15
2019-04-14T03:56:51.430Z,43.92
2019-04-14T03:59:21.653Z,41.65
2019-04-14T04:01:50.579Z,42.10
2019-04-14T04:04:20.427Z,41.60
2019-04-14T04:06:49.219Z,44.90
2019-04-14T04:09:19.303Z,41.00
2019-04-14T04:11:47.920Z,46.10
2019-04-14T04:14:16.494Z,43.10
2019-04-14T04:17:03.649Z,43.87
2019-04-14T04:19:36.937Z,41.48
2019-04-14T04:22:13.029Z,40.67
2019-04-14T04:24:59.276Z,42.48
2019-04-14T04:27:44.537Z,40.73
2019-04-14T04:30:18.675Z,41.83
2019-04-14T04:32:49.407Z,41.13
2019-04-14T04:35:19.684Z,40.10
2019-04-14T04:37:52.814Z,43.02
2019-04-14T04:40:27.051Z,45.85
2019-04-14T04:42:56.842Z,39.88
2019-04-14T04:45:25.717Z,43.23
2019-04-14T04:47:55.535Z,41.70
2019-04-14T04:50:24.198Z,44.05
2019-04-14T04:52:53.933Z,43.25
2019-04-14T04:55:22.660Z,40.00
2019-04-14T04:57:52.321Z,49.83
2019-04-14T05:00:22.164Z,47.08
2019-04-14T05:02:51.017Z,46.00
2019-04-14T05:05:56.241Z,47.48
2019-04-14T05:08:26.191Z,44.05
2019-04-14T05:10:59.008Z,42.23
2019-04-14T05:13:29.112Z,41.50
2019-04-14T05:15:57.893Z,45.05
2019-04-14T05:18:26.834Z,44.90
2019-04-14T05:20:55.675Z,47.33
2019-04-14T05:23:25.530Z,42.70
2019-04-14T05:25:55.943Z,44.65
2019-04-14T05:28:24.741Z,43.68
2019-04-14T05:30:54.587Z,43.42
2019-04-14T05:33:23.354Z,40.92
2019-04-14T05:35:53.093Z,41.45
2019-04-14T05:38:21.814Z,43.52
2019-04-14T05:40:51.803Z,43.63
2019-04-14T05:43:33.143Z,42.98
2019-04-14T05:45:50.906Z,39.88
2019-04-14T05:48:20.441Z,46.30
2019-04-14T05:50:49.090Z,43.23
2019-04-14T05:53:17.717Z,59.42
2019-04-14T05:55:46.307Z,39.63
2019-04-14T05:58:14.860Z,40.05
2019-04-14T06:00:46.270Z,50.28
2019-04-14T06:05:43.372Z,41.60
2019-04-14T06:08:12.027Z,41.13
2019-04-14T06:10:40.601Z,44.98
2019-04-14T06:13:11.704Z,43.23
2019-04-14T06:15:39.739Z,43.05
2019-04-14T06:18:08.436Z,43.13
2019-04-14T06:20:37.085Z,49.48
2019-04-14T06:23:05.719Z,45.73
2019-04-14T06:25:36.360Z,49.80
2019-04-14T06:28:04.806Z,40.28
2019-04-14T06:30:37.391Z,37.75
2019-04-14T06:33:07.681Z,41.50
2019-04-14T06:35:54.407Z,40.80
2019-04-14T06:38:25.004Z,39.03
2019-04-14T06:40:55.256Z,43.05
2019-04-14T06:43:23.900Z,42.33
2019-04-14T06:45:52.501Z,42.00
2019-04-14T06:48:21.128Z,52.20
2019-04-14T06:50:49.703Z,41.37
2019-04-14T06:53:18.279Z,44.13
2019-04-14T06:55:46.951Z,38.28
2019-04-14T06:58:15.441Z,43.20
2019-04-14T07:00:44.229Z,41.35
2019-04-14T07:03:12.906Z,40.95
2019-04-14T07:05:41.605Z,42.95
2019-04-14T07:08:10.115Z,40.48
2019-04-14T07:10:38.609Z,40.80
2019-04-14T07:13:07.237Z,40.05
2019-04-14T07:15:35.920Z,40.28
2019-04-14T07:18:04.483Z,39.90
2019-04-14T07:20:33.083Z,41.68
2019-04-14T07:23:01.693Z,42.62
2019-04-14T07:25:30.255Z,44.88
2019-04-14T07:28:00.079Z,41.65
2019-04-14T07:30:33.066Z,44.42
2019-04-14T07:33:21.369Z,42.55
2019-04-14T07:35:51.567Z,39.75
2019-04-14T07:38:30.899Z,41.15
2019-04-14T07:41:06.834Z,42.10
2019-04-14T07:43:37.120Z,41.90
2019-04-14T07:46:23.848Z,44.73
2019-04-14T07:48:54.077Z,45.98
2019-04-14T07:51:39.590Z,42.65
2019-04-14T07:54:12.693Z,44.58
2019-04-14T07:56:42.966Z,46.55
2019-04-14T07:59:19.463Z,43.45
2019-04-14T08:01:52.861Z,43.13
2019-04-14T08:04:23.079Z,43.30
2019-04-14T08:06:53.379Z,42.27
2019-04-14T08:09:22.154Z,44.93
2019-04-14T08:11:50.846Z,44.55
2019-04-14T08:14:19.536Z,44.95
2019-04-14T08:16:48.180Z,45.55
2019-04-14T08:19:16.755Z,46.35
2019-04-14T08:21:45.383Z,41.42
2019-04-14T08:24:13.950Z,41.20
2019-04-14T08:26:42.538Z,44.20
2019-04-14T08:29:11.156Z,41.08
2019-04-14T08:31:39.966Z,39.70
2019-04-14T08:34:08.584Z,43.60
2019-04-14T08:36:37.262Z,54.50
2019-04-14T08:39:07.225Z,40.40
2019-04-14T08:41:40.480Z,43.85
2019-04-14T08:44:10.771Z,38.58
2019-04-14T08:46:40.970Z,37.08
2019-04-14T08:49:26.721Z,39.42
2019-04-14T08:52:05.718Z,38.00
2019-04-14T08:54:45.216Z,37.98
2019-04-14T08:57:18.346Z,40.12
2019-04-14T09:00:03.864Z,40.05
2019-04-14T09:02:34.173Z,41.37
2019-04-14T09:05:06.871Z,41.58
2019-04-14T09:07:37.088Z,40.70
2019-04-14T09:10:17.512Z,47.17
2019-04-14T09:12:53.532Z,40.65
2019-04-14T09:15:22.229Z,35.35
2019-04-14T09:17:51.052Z,35.78
2019-04-14T09:20:19.727Z,38.90
2019-04-14T09:22:48.250Z,35.23
2019-04-14T09:25:16.830Z,44.90
2019-04-14T09:27:45.493Z,47.70
2019-04-14T09:30:15.225Z,42.30
2019-04-14T09:32:43.787Z,40.75
2019-04-14T09:35:12.434Z,37.58
2019-04-14T09:37:41.052Z,32.15
2019-04-14T09:40:09.782Z,32.05
2019-04-14T09:42:38.520Z,39.25
2019-04-14T09:45:07.645Z,35.08
2019-04-14T09:47:36.215Z,33.30
2019-04-14T09:50:06.266Z,38.92
2019-04-14T09:52:34.882Z,42.62
2019-04-14T09:55:04.217Z,32.50
2019-04-14T09:57:32.749Z,40.33
2019-04-14T10:00:01.377Z,30.60
2019-04-14T10:02:30.106Z,28.40
2019-04-14T10:04:58.765Z,41.90
2019-04-14T10:07:27.425Z,45.45
2019-04-14T10:09:56.084Z,32.65
2019-04-14T10:12:24.833Z,30.77
2019-04-14T10:14:53.428Z,32.80
2019-04-14T10:17:22.010Z,35.68
2019-04-14T10:19:50.700Z,34.63
2019-04-14T10:22:19.296Z,31.12
2019-04-14T10:24:48.060Z,30.57
2019-04-14T10:27:16.777Z,30.20
2019-04-14T10:29:45.337Z,28.67
2019-04-14T10:32:14.007Z,28.95
2019-04-14T10:34:42.600Z,30.35
2019-04-14T10:37:11.320Z,30.85
2019-04-14T10:39:39.903Z,39.53
2019-04-14T10:42:08.457Z,32.30
2019-04-14T10:44:36.961Z,33.40
2019-04-14T10:47:05.798Z,32.50
2019-04-14T10:49:34.329Z,32.38
2019-04-14T10:52:02.902Z,34.83
2019-04-14T10:54:31.545Z,29.02
2019-04-14T10:57:01.173Z,28.95
2019-04-14T10:59:30.059Z,27.60
2019-04-14T11:01:58.673Z,27.82
2019-04-14T11:04:27.256Z,28.77
2019-04-14T11:07:00.565Z,29.95
2019-04-14T11:09:29.125Z,28.30
2019-04-14T11:11:57.623Z,29.18
2019-04-14T11:14:26.125Z,27.87
2019-04-14T11:16:54.768Z,28.42
2019-04-14T11:19:23.458Z,29.90
2019-04-14T11:21:52.002Z,28.57
2019-04-14T11:24:20.650Z,30.00
2019-04-14T11:26:49.343Z,29.35
2019-04-14T11:29:17.978Z,32.30
2019-04-14T11:31:51.115Z,29.63
2019-04-14T11:34:37.417Z,28.40
2019-04-14T11:37:07.813Z,27.82
2019-04-14T11:39:36.577Z,26.80
2019-04-14T11:42:05.292Z,29.00
2019-04-14T11:44:34.053Z,27.82
2019-04-14T11:47:03.598Z,29.23
2019-04-14T11:49:32.089Z,29.37
2019-04-14T11:52:00.737Z,32.53
2019-04-14T11:54:29.475Z,36.28
2019-04-14T11:56:58.103Z,38.15
2019-04-14T11:59:28.561Z,38.30
2019-04-14T12:02:13.840Z,32.95
2019-04-14T12:04:46.929Z,29.98
2019-04-14T12:07:19.931Z,30.23
2019-04-14T12:09:52.945Z,30.97
2019-04-14T12:12:21.545Z,32.42
2019-04-14T12:14:50.132Z,30.75
2019-04-14T12:17:18.919Z,30.75
2019-04-14T12:19:47.657Z,33.55
2019-04-14T12:22:16.294Z,32.25
2019-04-14T12:24:44.792Z,47.20
2019-04-14T12:27:13.447Z,29.57
2019-04-14T12:29:43.249Z,32.38
2019-04-14T12:32:12.832Z,31.87
2019-04-14T12:34:41.529Z,34.63
2019-04-14T12:37:10.044Z,33.45
2019-04-14T12:39:38.540Z,33.53
2019-04-14T12:42:23.663Z,30.80
2019-04-14T12:44:56.864Z,36.83
2019-04-14T12:47:40.065Z,40.80
2019-04-14T12:50:08.470Z,36.28
2019-04-14T12:52:37.035Z,33.58
2019-04-14T12:55:06.929Z,32.35
2019-04-14T12:57:49.136Z,33.95
2019-04-14T13:00:36.147Z,32.67
2019-04-14T13:03:04.818Z,35.83
2019-04-14T13:05:33.480Z,35.92
2019-04-14T13:08:01.970Z,32.85
2019-04-14T13:10:30.627Z,31.75
2019-04-14T13:12:59.252Z,32.33
2019-04-14T13:15:27.835Z,32.70
2019-04-14T13:17:56.629Z,32.35
2019-04-14T13:20:25.210Z,30.60
2019-04-14T13:22:53.876Z,38.48
2019-04-14T13:25:22.704Z,33.30
2019-04-14T13:27:51.727Z,34.00
2019-04-14T13:30:25.327Z,32.40
2019-04-14T13:32:53.832Z,33.13
2019-04-14T13:35:22.635Z,33.38
2019-04-14T13:37:51.269Z,34.35
2019-04-14T13:40:20.085Z,49.33
2019-04-14T13:42:48.754Z,36.50
2019-04-14T13:45:17.376Z,36.23
2019-04-14T13:47:46.015Z,34.27
2019-04-14T13:50:14.682Z,33.15
2019-04-14T13:52:47.178Z,42.25
2019-04-14T13:55:13.890Z,35.75
2019-04-14T13:57:42.711Z,35.33
2019-04-14T14:00:13.885Z,33.60
2019-04-14T14:02:43.267Z,34.75
2019-04-14T14:05:12.081Z,41.42
2019-04-14T14:07:40.669Z,32.85
2019-04-14T14:10:10.275Z,34.60
2019-04-14T14:12:46.676Z,32.30
2019-04-14T14:15:33.965Z,31.93
2019-04-14T14:18:09.667Z,30.43
2019-04-14T14:20:42.706Z,33.23
2019-04-14T14:23:15.791Z,33.73
2019-04-14T14:25:46.068Z,34.48
2019-04-14T14:28:14.700Z,35.15
2019-04-14T14:30:43.345Z,33.38
2019-04-14T14:33:11.835Z,35.08
2019-04-14T14:35:40.565Z,51.98
2019-04-14T14:38:09.131Z,55.65
2019-04-14T14:40:37.773Z,41.18
2019-04-14T14:43:06.433Z,37.85
2019-04-14T14:45:42.749Z,34.83
2019-04-14T14:48:18.850Z,31.50
2019-04-14T14:50:52.040Z,30.00
2019-04-14T14:53:22.298Z,25.57
2019-04-14T14:55:51.093Z,36.35
2019-04-14T14:58:19.606Z,32.38
2019-04-14T15:00:48.175Z,25.20
2019-04-14T15:03:16.811Z,36.90
2019-04-14T15:05:45.395Z,31.20
2019-04-14T15:08:14.147Z,26.85
2019-04-14T15:10:42.810Z,31.60
2019-04-14T15:13:11.451Z,32.83
2019-04-14T15:15:40.190Z,29.82
2019-04-14T15:18:08.912Z,25.45
2019-04-14T15:20:37.533Z,47.13
2019-04-14T15:23:06.221Z,33.67
2019-04-14T15:25:34.922Z,26.82
2019-04-14T15:28:03.659Z,33.83
2019-04-14T15:30:32.378Z,32.15
2019-04-14T15:33:00.935Z,27.62
2019-04-14T15:35:29.717Z,26.23
2019-04-14T15:37:58.281Z,31.15
2019-04-14T15:40:26.844Z,29.48
2019-04-14T15:42:55.500Z,35.48
2019-04-14T15:45:24.217Z,37.23
2019-04-14T15:47:52.910Z,43.80
2019-04-14T15:50:21.724Z,55.60
2019-04-14T15:52:50.376Z,57.35
2019-04-14T15:55:19.767Z,42.98
2019-04-14T15:57:50.051Z,27.73
2019-04-14T16:00:20.447Z,27.27
2019-04-14T16:03:06.914Z,27.65
2019-04-14T16:05:40.301Z,35.50
2019-04-14T16:08:10.552Z,33.65
2019-04-14T16:10:46.700Z,29.23
2019-04-14T16:13:16.903Z,29.50
2019-04-14T16:16:03.681Z,34.80
2019-04-14T16:18:47.075Z,27.40
2019-04-14T16:21:15.909Z,29.37
2019-04-14T16:23:50.458Z,30.52
2019-04-14T16:26:25.647Z,29.02
2019-04-14T16:29:13.971Z,45.48
2019-04-14T16:31:53.365Z,37.48
2019-04-14T16:34:38.566Z,38.78
2019-04-14T16:37:07.303Z,40.10
2019-04-14T16:39:35.962Z,53.33
2019-04-14T16:42:04.673Z,31.75
2019-04-14T16:44:33.269Z,41.75
2019-04-14T16:47:01.910Z,28.87
2019-04-14T16:49:30.631Z,27.62
2019-04-14T16:52:00.909Z,33.53
2019-04-14T16:54:40.383Z,24.37
2019-04-14T16:57:29.173Z,25.15
2019-04-14T16:59:57.993Z,24.55
2019-04-14T17:02:26.582Z,23.98
2019-04-14T17:04:55.146Z,24.98
2019-04-14T17:07:23.887Z,24.15
2019-04-14T17:09:52.442Z,27.15
2019-04-14T17:12:21.056Z,24.18
2019-04-14T17:14:55.229Z,27.07
2019-04-14T17:17:31.467Z,24.85
2019-04-14T17:20:07.412Z,24.67
2019-04-14T17:22:37.645Z,24.30
2019-04-14T17:25:12.061Z,25.90
2019-04-14T17:27:48.334Z,24.07
2019-04-14T17:30:19.255Z,27.32
2019-04-14T17:33:04.897Z,26.70
2019-04-14T17:35:35.021Z,32.70
2019-04-14T17:38:08.354Z,25.48
2019-04-14T17:40:41.464Z,24.25
2019-04-14T17:43:11.665Z,23.50
2019-04-14T17:45:41.895Z,24.10
2019-04-14T17:48:12.173Z,25.35
2019-04-14T17:50:58.571Z,25.57
2019-04-14T17:53:37.552Z,25.60
2019-04-14T17:56:07.833Z,27.27
2019-04-14T17:58:38.025Z,28.90
2019-04-14T18:01:08.202Z,28.42
2019-04-14T18:03:50.521Z,30.00
2019-04-14T18:06:26.605Z,27.02
2019-04-14T18:08:59.766Z,30.55
2019-04-14T18:11:30.120Z,27.15
2019-04-14T18:14:00.326Z,27.45
2019-04-14T18:16:39.054Z,26.02
2019-04-14T18:19:15.067Z,25.57
2019-04-14T18:21:44.362Z,25.62
2019-04-14T18:24:13.096Z,30.15
2019-04-14T18:26:41.737Z,23.73
2019-04-14T18:29:30.023Z,27.90
2019-04-14T18:32:00.297Z,25.92
2019-04-14T18:34:39.336Z,27.67
2019-04-14T18:37:27.719Z,25.95
2019-04-14T18:40:09.864Z,25.68
2019-04-14T18:42:58.636Z,26.33
2019-04-14T18:45:32.119Z,26.02
2019-04-14T18:48:04.994Z,24.85
2019-04-14T18:50:38.090Z,26.23
2019-04-14T18:53:10.693Z,29.60
2019-04-14T18:55:47.009Z,24.70
2019-04-14T18:58:19.970Z,27.95
2019-04-14T19:00:50.184Z,24.43
2019-04-14T19:03:18.804Z,26.35
2019-04-14T19:05:47.479Z,28.07
2019-04-14T19:08:16.032Z,25.88
2019-04-14T19:10:46.366Z,24.95
2019-04-14T19:13:25.559Z,27.45
2019-04-14T19:15:55.693Z,25.35
2019-04-14T19:18:26.052Z,28.70
2019-04-14T19:20:56.244Z,25.92
2019-04-14T19:23:24.818Z,26.77
2019-04-14T19:25:53.384Z,26.33
2019-04-14T19:28:21.978Z,24.65
2019-04-14T19:30:50.470Z,23.75
2019-04-14T19:33:19.068Z,26.12
2019-04-14T19:35:47.616Z,22.40
2019-04-14T19:38:16.197Z,24.65
2019-04-14T19:40:44.783Z,23.20
2019-04-14T19:43:23.127Z,23.22
2019-04-14T19:45:43.582Z,25.57
2019-04-14T19:48:12.221Z,23.57
2019-04-14T19:50:40.882Z,23.05
2019-04-14T19:53:09.510Z,25.35
2019-04-14T19:55:38.145Z,24.52
2019-04-14T19:58:06.720Z,24.37
2019-04-14T20:00:35.220Z,23.65
2019-04-14T20:03:03.935Z,26.33
2019-04-14T20:05:32.432Z,27.52
2019-04-14T20:08:01.021Z,25.02
2019-04-14T20:10:29.578Z,26.23
2019-04-14T20:12:58.278Z,30.35
2019-04-14T20:15:28.513Z,25.72
2019-04-14T20:18:01.854Z,27.73
2019-04-14T20:20:48.104Z,27.77
2019-04-14T20:23:30.064Z,34.38
2019-04-14T20:26:00.286Z,35.35
2019-04-14T20:28:30.568Z,40.30
2019-04-14T20:31:18.603Z,39.95
2019-04-14T20:33:47.234Z,35.63
2019-04-14T20:36:15.759Z,36.33
2019-04-14T20:38:44.318Z,33.20
2019-04-14T20:41:12.953Z,33.55
2019-04-14T20:43:41.465Z,33.02
2019-04-14T20:46:10.169Z,36.13
2019-04-14T20:48:38.762Z,48.80
2019-04-14T20:51:07.327Z,61.65
2019-04-14T20:53:35.982Z,59.98
2019-04-14T20:56:04.624Z,61.77
2019-04-14T20:58:33.275Z,73.62
2019-04-14T21:01:02.019Z,64.35
2019-04-14T21:03:32.147Z,56.95
2019-04-14T21:06:05.109Z,49.45
2019-04-14T21:08:35.273Z,45.40
2019-04-14T21:11:08.532Z,38.13
2019-04-14T21:13:47.814Z,37.63
2019-04-14T21:16:30.143Z,36.33
2019-04-14T21:19:09.336Z,35.63
2019-04-14T21:21:39.615Z,33.13
2019-04-14T21:24:28.020Z,33.88
2019-04-14T21:26:58.248Z,33.48
2019-04-14T21:29:40.196Z,34.75
2019-04-14T21:32:16.591Z,34.08
2019-04-14T21:34:58.720Z,35.40
2019-04-14T21:37:46.533Z,33.75
2019-04-14T21:40:31.567Z,35.13
2019-04-14T21:43:00.171Z,33.90
2019-04-14T21:45:28.806Z,29.87
2019-04-14T21:47:57.500Z,37.08
2019-04-14T21:50:26.008Z,31.85
2019-04-14T21:52:54.629Z,29.12
2019-04-14T21:55:23.267Z,26.40
2019-04-14T21:57:53.479Z,25.65
2019-04-14T22:00:26.765Z,23.25
2019-04-14T22:03:13.347Z,24.70
2019-04-14T22:05:46.680Z,28.12
2019-04-14T22:08:19.709Z,22.17
2019-04-14T22:11:08.128Z,24.55
2019-04-14T22:13:36.755Z,24.98
2019-04-14T22:16:05.545Z,24.65
2019-04-14T22:18:34.171Z,24.52
2019-04-14T22:21:02.742Z,24.95
2019-04-14T22:23:31.401Z,24.30
2019-04-14T22:26:00.157Z,25.82
2019-04-14T22:28:28.745Z,23.70
2019-04-14T22:30:57.310Z,27.45
2019-04-14T22:33:25.966Z,25.17
2019-04-14T22:35:54.462Z,21.48
2019-04-14T22:38:23.264Z,24.02
2019-04-14T22:40:51.842Z,24.45
2019-04-14T22:43:20.397Z,25.90
2019-04-14T22:45:49.062Z,25.62
2019-04-14T22:48:17.625Z,25.20
2019-04-14T22:50:46.260Z,29.45
2019-04-14T22:53:14.826Z,33.33
2019-04-14T22:55:43.384Z,30.57
2019-04-14T22:58:11.987Z,35.58
2019-04-14T23:00:45.051Z,31.45
2019-04-14T23:03:16.125Z,30.25
2019-04-14T23:05:46.412Z,26.12
2019-04-14T23:08:19.560Z,21.02
2019-04-14T23:11:07.796Z,21.87
2019-04-14T23:13:50.129Z,19.62
2019-04-14T23:16:36.324Z,19.45
2019-04-14T23:19:09.334Z,18.75
2019-04-14T23:21:42.211Z,20.77
2019-04-14T23:24:12.492Z,20.10
2019-04-14T23:26:51.864Z,20.82
2019-04-14T23:29:11.428Z,23.12
2019-04-14T23:31:39.992Z,26.42
2019-04-14T23:34:08.651Z,21.02
2019-04-14T23:36:37.319Z,23.35
2019-04-14T23:39:08.968Z,29.50
2019-04-14T23:44:05.363Z,23.95
2019-04-14T23:46:33.951Z,29.02
2019-04-14T23:49:02.798Z,29.63
2019-04-14T23:51:31.427Z,27.27
2019-04-14T23:54:00.142Z,22.60
2019-04-14T23:56:28.795Z,22.25
2019-04-14T23:58:57.644Z,25.15
